Laukaa, Finland
Kieli:  Suomi
13°C CurCond
Päivitetty19/04/2018 12:25 
 

Lähistön Lentoasemien Säätiloja:

 

EFJY - Jyvaskyla (mil/C,) Finland
Etäisyys Sääasemalta: PKo 21km
Päivitetty: 19/04/2018 11:50
Selkeätä
Selkeätä
 Tuulen suunta Lu
Tuuli: Lu 20 km/h
Lämpötila: 10°C
Tuulen purevuus: 7°C
Kastepiste: 1°C
Ilmankosteus: 54%
Ilmanpaine: 1020 hPa
Yhteenveto: Selkeätä
Näkyvyys: Enemmän Kuin 10 km
2018/04/19 08:50 EFJY 190850Z 31011KT CAVOK 10/01 Q1020
EFHA - Halli (fin-Afb), Finland
Etäisyys Sääasemalta: Lo 56km
Päivitetty: 19/04/2018 12:20
Selkeätä
Selkeätä
 Tuulen suunta LLu
Tuuli: LLu 20 km/h
Lämpötila: 8°C
Tuulen purevuus: 4°C
Kastepiste: 4°C
Ilmankosteus: 76%
Ilmanpaine: 1021 hPa
Yhteenveto: Selkeätä
Näkyvyys: Enemmän Kuin 10 km
2018/04/19 09:20 EFHA 190920Z 30011KT CAVOK 08/04 Q1021
EFMI - Mikkeli, Finland
Etäisyys Sääasemalta: IKa 105km
Päivitetty: 19/04/2018 12:20
Selkeätä
Selkeätä
 Tuulen suunta L
Tuuli: L 13 km/h
Lämpötila: 11°C
Kastepiste: 5°C
Ilmankosteus: 67%
Ilmanpaine: 1019 hPa
Yhteenveto: Selkeätä
Näkyvyys: Enemmän Kuin 10 km
2018/04/19 09:20 EFMI 190920Z 28007KT 250V350 CAVOK 11/05 Q1019
 
EFTP - Tampere/Pirkkala, Finland
Etäisyys Sääasemalta: Lo 135km
Päivitetty: 19/04/2018 12:20
Joitain Pilviä
Joitain Pilviä
 Tuulen suunta L
Tuuli: L 13 km/h
Lämpötila: 8°C
Tuulen purevuus: 6°C
Kastepiste: 5°C
Ilmankosteus: 82%
Ilmanpaine: 1023 hPa
Pilvisyys: Joitain Pilviä
Näkyvyys: 10 km
Pilvisyystiedot: Joitain Pilviä 366 m
2018/04/19 09:20 EFTP 190920Z 27007KT 230V310 9999 FEW012 08/05 Q1023
EFKU - Kuopio (mil/Civ), Finland
Etäisyys Sääasemalta: Ko 146km
Päivitetty: 19/04/2018 12:20
Selkeätä
Selkeätä
 Tuulen suunta LLu
Tuuli: LLu 9 km/h
Lämpötila: 10°C
Tuulen purevuus: 9°C
Kastepiste: -2°C
Ilmankosteus: 43%
Ilmanpaine: 1019 hPa
Yhteenveto: Selkeätä
Näkyvyys: Enemmän Kuin 10 km
2018/04/19 09:20 EFKU 190920Z 30005KT CAVOK 10/M02 Q1019
EFSI - Seinajoki-Ilmajo, Finland
Etäisyys Sääasemalta: LLu 149km
Päivitetty: 19/04/2018 12:20

 Tuulen suunta Lu
Tuuli: Lu 19 km/h
Näkyvyys: 10 km
2018/04/19 09:20 EFSI 190920Z AUTO 31010KT 280V340 9999 ////// ///// Q////